Terminal Aerodrome Forecast
Issued by NWS

Home | Current Version | Previous Version | Graphics & Text | Print | Product List | Glossary On
Versions: 1 2 3 4 5 6 7 8 9 10 11 12 13 14
000
FTUS43 KBIS 302328
TAFJMS
TAF
KJMS 302328Z 0100/0124 11006KT P6SM VCSH BKN070
     FM010400 11004KT P6SM -SHRA VCTS BKN050CB OVC070
     FM011200 06006KT 5SM -SHRA BR BKN035 OVC050=

USA.gov is the U.S. government's official web portal to all federal, state and local government web resources and services.